Time;durP1;ratioP1;P1;durP2;ratioP2;P2;SDS_P1;SDS_P2;PMS_P1;PMS_P2;Temp;Humidity;BMP_temperature;BMP_pressure;BME280_temperature;BME280_humidity;BME280_pressure;Samples;Min_cycle;Max_cycle;Signal;HPM_P1;HPM_P2
2021/12/15 00:00:12;;;;;;;13.67;5.40;;;;;;;;;;5088691;28;20780;-69
2021/12/15 00:02:39;;;;;;;11.60;5.73;;;;;;;;;;5086013;28;20213;-68
2021/12/15 00:05:08;;;;;;;13.60;5.77;;;;;;;;;;5082092;28;20222;-69
2021/12/15 00:07:35;;;;;;;9.33;5.53;;;;;;;;;;5081660;28;20218;-69
2021/12/15 00:10:03;;;;;;;7.10;5.10;;;;;;;;;;5086586;28;20202;-69
2021/12/15 00:12:30;;;;;;;11.27;5.93;;;;;;;;;;5083995;28;20683;-69
2021/12/15 00:14:57;;;;;;;9.90;5.20;;;;;;;;;;5086605;28;20199;-69
2021/12/15 00:17:24;;;;;;;10.07;5.90;;;;;;;;;;5083476;28;20251;-69
2021/12/15 00:19:51;;;;;;;9.40;5.27;;;;;;;;;;5086588;28;20723;-68
2021/12/15 00:22:20;;;;;;;7.50;5.63;;;;;;;;;;5085839;28;20215;-68
2021/12/15 00:24:47;;;;;;;8.93;4.90;;;;;;;;;;5084149;28;20218;-69
2021/12/15 00:27:14;;;;;;;10.00;5.47;;;;;;;;;;5087869;28;20252;-69
2021/12/15 00:29:41;;;;;;;11.83;5.63;;;;;;;;;;5083006;28;20578;-68
2021/12/15 00:32:08;;;;;;;9.03;4.87;;;;;;;;;;5082007;28;20657;-69
2021/12/15 00:34:37;;;;;;;9.93;5.77;;;;;;;;;;5085890;28;20226;-69
2021/12/15 00:37:05;;;;;;;11.00;5.60;;;;;;;;;;5083805;28;20202;-69
2021/12/15 00:39:33;;;;;;;8.03;4.70;;;;;;;;;;5086752;28;20271;-69
2021/12/15 00:42:01;;;;;;;10.80;5.03;;;;;;;;;;5085240;28;20208;-69
2021/12/15 00:44:28;;;;;;;6.70;4.63;;;;;;;;;;5081782;28;20845;-69
2021/12/15 00:46:55;;;;;;;9.67;4.87;;;;;;;;;;5086594;28;20228;-69
2021/12/15 00:49:23;;;;;;;8.53;4.77;;;;;;;;;;5084980;28;20209;-69
2021/12/15 00:51:50;;;;;;;7.73;4.70;;;;;;;;;;5085451;28;20210;-68
2021/12/15 00:54:18;;;;;;;10.17;4.87;;;;;;;;;;5080563;28;20263;-68
2021/12/15 00:56:46;;;;;;;8.33;4.53;;;;;;;;;;5083857;28;20217;-69
2021/12/15 00:59:13;;;;;;;8.97;4.93;;;;;;;;;;5091239;28;20217;-69
2021/12/15 01:01:41;;;;;;;8.70;4.80;;;;;;;;;;5090832;28;20202;-69
2021/12/15 01:04:09;;;;;;;11.47;6.07;;;;;;;;;;5090344;28;20666;-68
2021/12/15 01:06:37;;;;;;;7.73;4.47;;;;;;;;;;5091059;28;20711;-69
2021/12/15 01:09:08;;;;;;;9.63;4.77;;;;;;;;;;5091145;28;20571;-69
2021/12/15 01:11:52;;;;;;;6.50;4.60;;;;;;;;;;5090839;28;20249;-69
2021/12/15 01:14:33;;;;;;;5.77;4.13;;;;;;;;;;5090556;28;20660;-69
2021/12/15 01:19:51;;;;;;;8.43;5.60;;;;;;;;;;5083146;28;20202;-68
2021/12/15 01:22:20;;;;;;;8.33;4.83;;;;;;;;;;5090151;28;20198;-68
2021/12/15 01:24:47;;;;;;;8.63;4.97;;;;;;;;;;5089856;28;20226;-69
2021/12/15 01:27:14;;;;;;;7.63;5.13;;;;;;;;;;5090860;28;20301;-69
2021/12/15 01:29:43;;;;;;;10.80;5.10;;;;;;;;;;5090690;28;20375;-69
2021/12/15 01:32:10;;;;;;;10.27;4.80;;;;;;;;;;5090738;28;20207;-68
2021/12/15 01:34:37;;;;;;;11.97;5.97;;;;;;;;;;5089870;28;20648;-69
2021/12/15 01:37:05;;;;;;;12.27;4.93;;;;;;;;;;5090263;28;20209;-69
2021/12/15 01:39:32;;;;;;;7.77;5.47;;;;;;;;;;5090501;28;20202;-68
2021/12/15 01:41:59;;;;;;;9.67;5.23;;;;;;;;;;5090903;28;20209;-67
2021/12/15 01:47:12;;;;;;;7.23;5.03;;;;;;;;;;5091015;28;20328;-68
2021/12/15 01:49:41;;;;;;;7.63;5.13;;;;;;;;;;5090889;28;20726;-68
2021/12/15 01:52:11;;;;;;;10.20;5.07;;;;;;;;;;5090724;28;20230;-68
2021/12/15 01:54:38;;;;;;;11.67;5.13;;;;;;;;;;5090528;28;20355;-69
2021/12/15 01:57:06;;;;;;;8.23;5.17;;;;;;;;;;5090860;28;20213;-69
2021/12/15 01:59:34;;;;;;;9.00;4.80;;;;;;;;;;5089898;28;20661;-69
2021/12/15 02:02:01;;;;;;;9.37;5.43;;;;;;;;;;5090854;28;20217;-68
2021/12/15 02:04:30;;;;;;;10.60;5.60;;;;;;;;;;5089297;28;20225;-68
2021/12/15 02:06:57;;;;;;;9.33;5.77;;;;;;;;;;5090655;28;20333;-69
2021/12/15 02:09:46;;;;;;;12.33;4.53;;;;;;;;;;5089845;28;20651;-68
2021/12/15 02:12:15;;;;;;;13.43;5.50;;;;;;;;;;5090654;28;20202;-69
2021/12/15 02:14:43;;;;;;;6.17;4.50;;;;;;;;;;5089937;28;20313;-68
2021/12/15 02:17:10;;;;;;;10.47;5.00;;;;;;;;;;5090251;28;20210;-69
2021/12/15 02:19:38;;;;;;;10.90;5.80;;;;;;;;;;5090351;28;20842;-69
2021/12/15 02:22:07;;;;;;;9.40;5.50;;;;;;;;;;5090354;28;20210;-68
2021/12/15 02:24:36;;;;;;;8.77;5.60;;;;;;;;;;5089767;28;20230;-69
2021/12/15 02:27:03;;;;;;;10.07;5.57;;;;;;;;;;5090201;28;20209;-69
2021/12/15 02:29:39;;;;;;;9.17;5.50;;;;;;;;;;5090021;28;20237;-68
2021/12/15 02:32:15;;;;;;;11.47;6.40;;;;;;;;;;5089774;28;20235;-68
2021/12/15 02:37:02;;;;;;;8.87;5.77;;;;;;;;;;5089696;28;20221;-69
2021/12/15 02:37:43;;;;;;;11.83;5.57;;;;;;;;;;5088702;28;20213;-69
2021/12/15 02:40:12;;;;;;;8.60;5.43;;;;;;;;;;5089460;28;20209;-68
2021/12/15 02:42:41;;;;;;;9.73;5.60;;;;;;;;;;5090006;28;20627;-68
2021/12/15 02:45:10;;;;;;;8.97;5.23;;;;;;;;;;5089111;28;20218;-68
2021/12/15 02:47:37;;;;;;;9.40;6.30;;;;;;;;;;5089408;28;20264;-68
2021/12/15 02:50:06;;;;;;;13.13;5.37;;;;;;;;;;5088748;28;20594;-68
2021/12/15 02:52:33;;;;;;;15.13;7.17;;;;;;;;;;5089555;28;20205;-68
2021/12/15 02:55:02;;;;;;;12.33;6.53;;;;;;;;;;5089708;28;20194;-68
2021/12/15 02:57:29;;;;;;;14.90;6.43;;;;;;;;;;5089491;28;20214;-68
2021/12/15 03:00:01;;;;;;;13.40;7.47;;;;;;;;;;5089652;28;20217;-68
2021/12/15 03:02:58;;;;;;;12.30;6.40;;;;;;;;;;5090140;28;20874;-68
2021/12/15 03:05:28;;;;;;;10.90;5.47;;;;;;;;;;5083326;28;20222;-69
2021/12/15 03:08:04;;;;;;;12.40;5.77;;;;;;;;;;5089284;28;20206;-68
2021/12/15 03:16:03;;;;;;;11.60;5.40;;;;;;;;;;5088677;28;20221;-68
2021/12/15 03:18:30;;;;;;;10.93;6.20;;;;;;;;;;5088335;28;20202;-68
2021/12/15 03:20:59;;;;;;;10.00;6.10;;;;;;;;;;5089215;28;20215;-68
2021/12/15 03:23:29;;;;;;;11.10;5.57;;;;;;;;;;5089630;28;20202;-68
2021/12/15 03:25:58;;;;;;;18.70;7.33;;;;;;;;;;5089200;28;20339;-68
2021/12/15 03:34:09;;;;;;;10.07;6.03;;;;;;;;;;5089515;28;20715;-69
2021/12/15 03:37:03;;;;;;;14.30;6.30;;;;;;;;;;5088610;28;20198;-68
2021/12/15 03:39:32;;;;;;;14.73;5.97;;;;;;;;;;5079646;28;20202;-68
2021/12/15 03:42:05;;;;;;;13.97;6.13;;;;;;;;;;5089029;28;20621;-68
2021/12/15 03:44:34;;;;;;;13.30;5.83;;;;;;;;;;5084748;28;20291;-68
2021/12/15 03:47:01;;;;;;;10.20;5.80;;;;;;;;;;5088784;28;20823;-68
2021/12/15 03:49:29;;;;;;;16.53;6.53;;;;;;;;;;5089044;28;20198;-69
2021/12/15 03:51:56;;;;;;;13.03;6.10;;;;;;;;;;5089042;28;20260;-68
2021/12/15 03:54:23;;;;;;;8.20;5.23;;;;;;;;;;5089272;28;20202;-68
2021/12/15 03:56:50;;;;;;;12.00;6.43;;;;;;;;;;5088969;28;20210;-68
2021/12/15 03:59:19;;;;;;;11.90;6.40;;;;;;;;;;5088687;28;20206;-68
2021/12/15 04:01:47;;;;;;;12.40;5.73;;;;;;;;;;5089007;28;20256;-68
2021/12/15 04:04:14;;;;;;;11.70;6.00;;;;;;;;;;5089042;28;20249;-68
2021/12/15 04:06:41;;;;;;;18.03;6.40;;;;;;;;;;5088899;28;20230;-68
2021/12/15 04:09:10;;;;;;;9.63;5.63;;;;;;;;;;5087557;28;20213;-68
2021/12/15 04:11:37;;;;;;;18.07;7.17;;;;;;;;;;5088637;28;20199;-68
2021/12/15 04:14:08;;;;;;;12.00;5.77;;;;;;;;;;5088723;28;20784;-69
2021/12/15 04:16:44;;;;;;;12.90;6.00;;;;;;;;;;5088622;28;20207;-68
2021/12/15 04:19:14;;;;;;;10.80;6.13;;;;;;;;;;5088758;28;20206;-68
2021/12/15 04:21:42;;;;;;;16.47;6.70;;;;;;;;;;5088874;28;20202;-68
2021/12/15 04:24:11;;;;;;;10.77;5.77;;;;;;;;;;5088921;28;20210;-67
2021/12/15 04:26:38;;;;;;;13.27;5.87;;;;;;;;;;5089882;28;20234;-68
2021/12/15 04:29:06;;;;;;;17.40;6.73;;;;;;;;;;5091613;28;20283;-68
2021/12/15 04:31:34;;;;;;;10.03;6.13;;;;;;;;;;5092195;28;20230;-68
2021/12/15 04:34:04;;;;;;;16.07;6.97;;;;;;;;;;5092369;28;20233;-69
2021/12/15 04:36:32;;;;;;;13.47;5.63;;;;;;;;;;5080605;28;20199;-68
2021/12/15 04:38:59;;;;;;;17.43;5.93;;;;;;;;;;5090988;28;20573;-68
2021/12/15 04:41:27;;;;;;;10.00;6.00;;;;;;;;;;5091292;28;20218;-68
2021/12/15 04:43:57;;;;;;;12.50;6.43;;;;;;;;;;5091660;28;20203;-68
2021/12/15 04:46:25;;;;;;;12.73;5.37;;;;;;;;;;5091420;28;20233;-68
2021/12/15 04:48:52;;;;;;;13.50;6.20;;;;;;;;;;5090975;28;20206;-68
2021/12/15 04:51:20;;;;;;;12.10;5.00;;;;;;;;;;5090937;28;20211;-68
2021/12/15 04:53:48;;;;;;;11.87;6.03;;;;;;;;;;5091154;28;20209;-68
2021/12/15 04:56:15;;;;;;;13.30;5.37;;;;;;;;;;5091454;28;20252;-68
2021/12/15 04:58:42;;;;;;;13.23;6.27;;;;;;;;;;5091352;28;20198;-68
2021/12/15 05:01:10;;;;;;;12.13;5.97;;;;;;;;;;5090158;28;20206;-68
2021/12/15 05:03:39;;;;;;;10.57;5.60;;;;;;;;;;5090618;28;20202;-68
2021/12/15 05:06:06;;;;;;;11.60;5.47;;;;;;;;;;5091209;28;20226;-68
2021/12/15 05:08:35;;;;;;;14.37;5.63;;;;;;;;;;5091009;28;20584;-68
2021/12/15 05:11:03;;;;;;;9.57;5.17;;;;;;;;;;5091130;28;20213;-68
2021/12/15 05:13:30;;;;;;;10.37;5.87;;;;;;;;;;5090861;28;20582;-68
2021/12/15 05:15:58;;;;;;;12.50;6.07;;;;;;;;;;5089506;28;20199;-68
2021/12/15 05:18:26;;;;;;;9.60;5.20;;;;;;;;;;5090689;28;20218;-68
2021/12/15 05:20:54;;;;;;;11.10;5.77;;;;;;;;;;5090531;28;20213;-68
2021/12/15 05:23:26;;;;;;;9.40;5.50;;;;;;;;;;5090898;28;20206;-67
2021/12/15 05:25:54;;;;;;;12.23;6.10;;;;;;;;;;5089836;28;20222;-68
2021/12/15 05:28:21;;;;;;;10.20;5.73;;;;;;;;;;5091093;28;20615;-68
2021/12/15 05:30:55;;;;;;;11.67;5.73;;;;;;;;;;5089986;28;20230;-68
2021/12/15 05:33:22;;;;;;;13.60;6.00;;;;;;;;;;5088549;28;20257;-68
2021/12/15 05:35:50;;;;;;;10.67;5.93;;;;;;;;;;5090552;28;20199;-68
2021/12/15 05:38:18;;;;;;;13.63;5.60;;;;;;;;;;5089963;28;20759;-68
2021/12/15 05:40:46;;;;;;;11.13;5.27;;;;;;;;;;5090663;28;20203;-68
2021/12/15 05:43:14;;;;;;;11.97;5.80;;;;;;;;;;5091015;28;20267;-68
2021/12/15 05:45:42;;;;;;;10.50;5.37;;;;;;;;;;5088202;28;20226;-68
2021/12/15 05:48:11;;;;;;;13.17;5.93;;;;;;;;;;5087953;28;20210;-68
2021/12/15 05:50:39;;;;;;;13.60;5.30;;;;;;;;;;5090101;28;20508;-68
2021/12/15 05:53:07;;;;;;;11.83;5.93;;;;;;;;;;5090521;28;20268;-69
2021/12/15 05:55:34;;;;;;;11.83;5.97;;;;;;;;;;5090209;28;20699;-68
2021/12/15 05:58:02;;;;;;;9.60;5.73;;;;;;;;;;5090103;28;20202;-68
2021/12/15 06:00:32;;;;;;;8.33;5.73;;;;;;;;;;5089422;28;20210;-68
2021/12/15 06:02:59;;;;;;;15.20;5.70;;;;;;;;;;5083018;28;20214;-68
2021/12/15 06:05:27;;;;;;;14.60;6.47;;;;;;;;;;5090011;28;20226;-68
2021/12/15 06:07:54;;;;;;;11.87;6.00;;;;;;;;;;5090010;28;20213;-69
2021/12/15 06:10:23;;;;;;;9.40;5.87;;;;;;;;;;5089329;28;20199;-69
2021/12/15 06:12:51;;;;;;;14.17;6.53;;;;;;;;;;5089499;28;20656;-70
2021/12/15 06:15:21;;;;;;;10.43;5.27;;;;;;;;;;5089166;28;20225;-69
2021/12/15 06:17:50;;;;;;;11.17;5.47;;;;;;;;;;5089862;28;20210;-69
2021/12/15 06:20:17;;;;;;;9.00;5.07;;;;;;;;;;5089595;28;20945;-68
2021/12/15 06:22:45;;;;;;;12.33;5.80;;;;;;;;;;5090008;28;20347;-69
2021/12/15 06:25:13;;;;;;;7.37;4.77;;;;;;;;;;5089159;28;20569;-69
2021/12/15 06:27:40;;;;;;;10.33;5.47;;;;;;;;;;5088733;28;20203;-72
2021/12/15 06:30:09;;;;;;;8.43;4.73;;;;;;;;;;5087810;28;20245;-68
2021/12/15 06:32:36;;;;;;;11.33;5.03;;;;;;;;;;5088091;28;20217;-66
2021/12/15 06:35:06;;;;;;;7.60;4.30;;;;;;;;;;5088835;28;20665;-67
2021/12/15 06:37:33;;;;;;;11.57;5.20;;;;;;;;;;5089478;28;20206;-68
2021/12/15 06:40:00;;;;;;;8.67;5.03;;;;;;;;;;5089125;28;20626;-67
2021/12/15 06:42:27;;;;;;;10.03;5.50;;;;;;;;;;5088944;28;20581;-68
2021/12/15 06:44:56;;;;;;;8.50;5.27;;;;;;;;;;5089013;28;20255;-68
2021/12/15 06:58:23;;;;;;;9.00;4.93;;;;;;;;;;5089103;28;20204;-68
2021/12/15 07:00:52;;;;;;;13.90;6.03;;;;;;;;;;5088890;28;20216;-67
2021/12/15 07:03:20;;;;;;;7.40;4.83;;;;;;;;;;5088477;28;20220;-68
2021/12/15 07:05:48;;;;;;;10.30;5.00;;;;;;;;;;5088324;28;20229;-68
2021/12/15 07:08:16;;;;;;;7.97;5.27;;;;;;;;;;5088978;28;20955;-68
2021/12/15 07:10:45;;;;;;;9.80;5.17;;;;;;;;;;5089011;28;20210;-71
2021/12/15 07:13:14;;;;;;;5.53;4.57;;;;;;;;;;5088643;28;20216;-69
2021/12/15 07:15:41;;;;;;;9.67;4.83;;;;;;;;;;5087693;28;20676;-68
2021/12/15 07:18:11;;;;;;;8.77;4.67;;;;;;;;;;5068480;28;20591;-68
2021/12/15 07:20:42;;;;;;;6.97;4.87;;;;;;;;;;5068437;28;20425;-68
2021/12/15 07:23:11;;;;;;;7.70;4.20;;;;;;;;;;5088637;28;20316;-69
2021/12/15 07:25:39;;;;;;;9.27;5.10;;;;;;;;;;5088079;28;20245;-69
2021/12/15 07:28:18;;;;;;;9.87;5.00;;;;;;;;;;5088234;28;20558;-68
2021/12/15 07:30:46;;;;;;;5.97;4.63;;;;;;;;;;5088485;28;20284;-68
2021/12/15 07:33:14;;;;;;;7.57;4.80;;;;;;;;;;5087403;28;20226;-68
2021/12/15 07:35:41;;;;;;;9.10;5.40;;;;;;;;;;5068933;28;20218;-68
2021/12/15 07:38:09;;;;;;;8.57;5.63;;;;;;;;;;5077662;28;20218;-68
2021/12/15 07:40:40;;;;;;;6.23;4.43;;;;;;;;;;5068406;28;20211;-68
2021/12/15 07:43:10;;;;;;;9.07;5.27;;;;;;;;;;5080179;28;20233;-68
2021/12/15 07:45:40;;;;;;;8.70;5.47;;;;;;;;;;5088281;28;20206;-68
2021/12/15 07:48:08;;;;;;;9.60;4.47;;;;;;;;;;5088492;28;20210;-68
2021/12/15 07:50:36;;;;;;;8.27;4.90;;;;;;;;;;5088075;28;20221;-67
2021/12/15 07:53:04;;;;;;;7.10;5.00;;;;;;;;;;5068794;28;20207;-68
2021/12/15 07:55:31;;;;;;;15.33;5.97;;;;;;;;;;5068387;28;20218;-68
2021/12/15 07:58:01;;;;;;;7.90;5.23;;;;;;;;;;5076850;28;20683;-68
2021/12/15 08:00:28;;;;;;;12.27;6.67;;;;;;;;;;5088122;28;20664;-68
2021/12/15 08:02:56;;;;;;;8.57;5.17;;;;;;;;;;5091593;28;20210;-68
2021/12/15 08:05:23;;;;;;;7.00;4.17;;;;;;;;;;5092248;28;20206;-68
2021/12/15 08:07:50;;;;;;;15.13;6.93;;;;;;;;;;5092042;28;20229;-68
2021/12/15 08:10:18;;;;;;;13.00;6.47;;;;;;;;;;5091952;28;20580;-68
2021/12/15 08:12:46;;;;;;;11.73;5.50;;;;;;;;;;5092253;28;20583;-68
2021/12/15 08:15:16;;;;;;;8.73;5.60;;;;;;;;;;5091813;28;20206;-68
2021/12/15 08:17:43;;;;;;;8.50;4.67;;;;;;;;;;5091875;28;20208;-68
2021/12/15 08:20:12;;;;;;;13.20;6.30;;;;;;;;;;5090205;28;20226;-68
2021/12/15 08:22:39;;;;;;;8.77;5.53;;;;;;;;;;5088297;28;20214;-68
2021/12/15 08:25:07;;;;;;;8.83;5.63;;;;;;;;;;5091866;28;20214;-68
2021/12/15 08:27:34;;;;;;;8.63;4.83;;;;;;;;;;5083860;28;20579;-69
2021/12/15 08:30:01;;;;;;;12.37;5.53;;;;;;;;;;5071085;28;20721;-65
2021/12/15 08:32:30;;;;;;;9.57;5.40;;;;;;;;;;5071559;28;20696;-68
2021/12/15 08:34:57;;;;;;;11.87;5.93;;;;;;;;;;5071274;28;20364;-69
2021/12/15 08:37:24;;;;;;;11.77;5.93;;;;;;;;;;5089325;28;20227;-69
2021/12/15 08:39:51;;;;;;;14.07;6.10;;;;;;;;;;5091452;28;20864;-68
2021/12/15 08:42:18;;;;;;;10.37;5.47;;;;;;;;;;5091654;28;20211;-68
2021/12/15 08:44:46;;;;;;;13.97;5.93;;;;;;;;;;5091265;28;20214;-68
2021/12/15 08:47:13;;;;;;;11.27;5.83;;;;;;;;;;5091355;28;20230;-68
2021/12/15 08:49:41;;;;;;;15.00;6.27;;;;;;;;;;5090764;28;20275;-69
2021/12/15 08:52:09;;;;;;;13.43;6.27;;;;;;;;;;5091177;28;20226;-69
2021/12/15 08:54:36;;;;;;;16.60;7.40;;;;;;;;;;5090884;28;20218;-69
2021/12/15 08:57:03;;;;;;;16.20;6.67;;;;;;;;;;5076831;28;20207;-68
2021/12/15 08:59:30;;;;;;;14.63;7.27;;;;;;;;;;5083644;28;20217;-70
2021/12/15 09:01:57;;;;;;;17.83;6.77;;;;;;;;;;5072976;28;20268;-70
2021/12/15 09:04:24;;;;;;;17.63;6.90;;;;;;;;;;5073317;28;20553;-69
2021/12/15 09:06:53;;;;;;;13.03;6.47;;;;;;;;;;5079885;28;20222;-69
2021/12/15 09:09:21;;;;;;;10.27;5.73;;;;;;;;;;5077422;28;20222;-70
2021/12/15 09:11:49;;;;;;;11.57;5.90;;;;;;;;;;5084747;28;20645;-68
2021/12/15 09:14:17;;;;;;;10.93;6.23;;;;;;;;;;5084748;28;20296;-67
2021/12/15 09:16:46;;;;;;;13.90;6.43;;;;;;;;;;5077727;28;20236;-68
2021/12/15 09:19:13;;;;;;;17.17;6.20;;;;;;;;;;5089973;28;20210;-67
2021/12/15 09:21:42;;;;;;;11.10;5.43;;;;;;;;;;5073103;28;20215;-67
2021/12/15 09:24:11;;;;;;;10.90;6.60;;;;;;;;;;5083113;28;20217;-68
2021/12/15 09:26:39;;;;;;;8.23;4.47;;;;;;;;;;5079699;28;20678;-67
2021/12/15 09:29:07;;;;;;;9.73;5.37;;;;;;;;;;5070262;28;20211;-68
2021/12/15 09:31:34;;;;;;;11.77;5.93;;;;;;;;;;5074145;28;20583;-68
2021/12/15 09:34:03;;;;;;;10.47;5.67;;;;;;;;;;5069601;28;20222;-68
2021/12/15 09:36:30;;;;;;;13.73;5.90;;;;;;;;;;5075773;28;20221;-67
2021/12/15 09:38:58;;;;;;;11.17;6.23;;;;;;;;;;5069885;28;20208;-68
2021/12/15 09:41:27;;;;;;;6.87;4.67;;;;;;;;;;5080951;28;20214;-68
2021/12/15 09:43:57;;;;;;;13.30;6.67;;;;;;;;;;5081465;28;20263;-68
2021/12/15 09:46:41;;;;;;;9.73;5.70;;;;;;;;;;5085006;28;20265;-71
2021/12/15 09:57:35;;;;;;;8.73;5.57;;;;;;;;;;5079033;28;20209;-69
2021/12/15 10:02:54;;;;;;;9.83;5.93;;;;;;;;;;5070369;28;20467;-69
2021/12/15 10:05:34;;;;;;;13.97;6.60;;;;;;;;;;5075685;28;20317;-69
2021/12/15 10:11:12;;;;;;;10.13;5.53;;;;;;;;;;5070329;28;20209;-69
2021/12/15 10:19:18;;;;;;;13.73;5.47;;;;;;;;;;5078713;28;20341;-69
2021/12/15 10:22:01;;;;;;;11.53;5.93;;;;;;;;;;5070082;28;20259;-69
2021/12/15 10:24:29;;;;;;;6.60;4.93;;;;;;;;;;5069074;28;20203;-70
2021/12/15 10:26:57;;;;;;;11.73;6.03;;;;;;;;;;5074051;28;20238;-69
2021/12/15 10:29:26;;;;;;;8.93;5.67;;;;;;;;;;5076300;28;20229;-67
2021/12/15 10:32:00;;;;;;;14.77;6.30;;;;;;;;;;5079210;28;20202;-69
2021/12/15 10:34:27;;;;;;;8.37;5.77;;;;;;;;;;5078004;28;20234;-69
2021/12/15 10:36:54;;;;;;;6.70;5.17;;;;;;;;;;5082831;28;20203;-69
2021/12/15 10:39:22;;;;;;;9.90;5.23;;;;;;;;;;5078608;28;20218;-68
2021/12/15 10:41:53;;;;;;;8.33;4.97;;;;;;;;;;5069419;28;20294;-69
2021/12/15 10:44:23;;;;;;;13.37;6.27;;;;;;;;;;5075726;28;20225;-68
2021/12/15 10:46:54;;;;;;;13.67;5.67;;;;;;;;;;5085965;28;20330;-70
2021/12/15 10:49:22;;;;;;;7.90;5.27;;;;;;;;;;5085989;28;20263;-69
2021/12/15 10:51:50;;;;;;;9.80;6.10;;;;;;;;;;5070067;28;20306;-68
2021/12/15 10:54:18;;;;;;;10.97;5.70;;;;;;;;;;5069114;28;20211;-70
2021/12/15 10:56:50;;;;;;;10.03;6.40;;;;;;;;;;5066914;28;20211;-66
2021/12/15 10:59:17;;;;;;;8.37;5.07;;;;;;;;;;5082293;28;20206;-70
2021/12/15 11:01:46;;;;;;;9.37;5.57;;;;;;;;;;5071823;28;20218;-72
2021/12/15 11:04:23;;;;;;;8.57;5.40;;;;;;;;;;5069181;28;20207;-71
2021/12/15 11:07:02;;;;;;;10.43;5.93;;;;;;;;;;5068822;28;20226;-71
2021/12/15 11:09:33;;;;;;;6.63;4.83;;;;;;;;;;5069115;28;20221;-72
2021/12/15 11:12:00;;;;;;;7.00;4.93;;;;;;;;;;5069077;28;20234;-72
2021/12/15 11:14:29;;;;;;;8.87;5.60;;;;;;;;;;5080070;28;20210;-72
2021/12/15 11:17:04;;;;;;;6.47;4.23;;;;;;;;;;5078712;28;20211;-71
2021/12/15 11:19:46;;;;;;;9.93;4.27;;;;;;;;;;5068655;28;20932;-71
2021/12/15 11:22:32;;;;;;;8.17;5.13;;;;;;;;;;5069631;28;20205;-71
2021/12/15 11:25:00;;;;;;;6.90;4.47;;;;;;;;;;5068883;28;20963;-71
2021/12/15 11:27:27;;;;;;;5.37;4.00;;;;;;;;;;5081611;28;20234;-70
2021/12/15 11:29:54;;;;;;;7.23;4.67;;;;;;;;;;5071099;28;20258;-72
2021/12/15 11:32:38;;;;;;;6.20;4.33;;;;;;;;;;5073339;28;20202;-71
2021/12/15 11:35:07;;;;;;;6.73;4.43;;;;;;;;;;5070226;28;20257;-69
2021/12/15 11:37:44;;;;;;;6.87;4.50;;;;;;;;;;5070279;28;20226;-69
2021/12/15 11:40:12;;;;;;;6.80;4.67;;;;;;;;;;5071732;28;20203;-74
2021/12/15 11:42:40;;;;;;;6.80;4.70;;;;;;;;;;5086680;28;20257;-70
2021/12/15 11:45:07;;;;;;;6.87;4.63;;;;;;;;;;5076662;28;20789;-70
2021/12/15 11:47:36;;;;;;;6.07;3.87;;;;;;;;;;5079314;28;20242;-71
2021/12/15 11:50:09;;;;;;;8.20;4.47;;;;;;;;;;5078972;28;20202;-71
2021/12/15 11:52:40;;;;;;;6.63;4.07;;;;;;;;;;5076863;28;20739;-73
2021/12/15 11:55:08;;;;;;;5.47;3.97;;;;;;;;;;5072238;28;20207;-72
2021/12/15 11:57:36;;;;;;;8.90;5.67;;;;;;;;;;5085624;28;20237;-72
2021/12/15 12:00:07;;;;;;;7.23;4.53;;;;;;;;;;5092899;28;20298;-72
2021/12/15 12:02:35;;;;;;;6.20;4.33;;;;;;;;;;5092144;28;20566;-71
2021/12/15 12:05:04;;;;;;;5.63;4.70;;;;;;;;;;5091355;28;20217;-70
2021/12/15 12:07:33;;;;;;;9.00;5.33;;;;;;;;;;5092408;28;20233;-69
2021/12/15 12:10:02;;;;;;;7.67;5.20;;;;;;;;;;5092293;28;20210;-70
2021/12/15 12:12:35;;;;;;;7.60;5.07;;;;;;;;;;5091913;28;20206;-69
2021/12/15 12:15:02;;;;;;;10.37;5.37;;;;;;;;;;5092210;28;20215;-70
2021/12/15 12:17:30;;;;;;;8.60;4.57;;;;;;;;;;5090716;28;20202;-69
2021/12/15 12:19:59;;;;;;;6.63;4.97;;;;;;;;;;5092047;28;20205;-69
2021/12/15 12:22:28;;;;;;;5.17;4.53;;;;;;;;;;5090082;28;20206;-69
2021/12/15 12:24:58;;;;;;;8.20;5.70;;;;;;;;;;5073198;28;20202;-69
2021/12/15 12:27:26;;;;;;;11.63;6.37;;;;;;;;;;5085712;28;20230;-69
2021/12/15 12:29:54;;;;;;;16.40;8.13;;;;;;;;;;5084848;28;20238;-69
2021/12/15 12:32:21;;;;;;;11.33;5.83;;;;;;;;;;5077535;28;20220;-69
2021/12/15 12:34:49;;;;;;;7.73;5.07;;;;;;;;;;5086969;28;20221;-71
2021/12/15 12:37:16;;;;;;;5.47;4.50;;;;;;;;;;5067401;28;20219;-69
2021/12/15 12:39:45;;;;;;;7.63;4.80;;;;;;;;;;5084719;28;20218;-69
2021/12/15 12:42:28;;;;;;;6.10;4.27;;;;;;;;;;5086136;28;20206;-68
2021/12/15 12:45:07;;;;;;;4.77;4.27;;;;;;;;;;5086033;28;20309;-68
2021/12/15 12:47:41;;;;;;;6.33;4.73;;;;;;;;;;5086174;28;20230;-68
2021/12/15 12:50:35;;;;;;;6.33;4.57;;;;;;;;;;5079356;28;20209;-69
2021/12/15 13:01:24;;;;;;;6.57;4.13;;;;;;;;;;5078939;28;20211;-69
2021/12/15 13:03:56;;;;;;;5.53;3.57;;;;;;;;;;5074399;28;20688;-69
2021/12/15 13:06:24;;;;;;;8.23;4.20;;;;;;;;;;5077450;28;20206;-69
2021/12/15 13:08:54;;;;;;;7.47;4.57;;;;;;;;;;5069749;28;20708;-69
2021/12/15 13:11:33;;;;;;;5.23;4.20;;;;;;;;;;5074073;28;20272;-69
2021/12/15 13:14:03;;;;;;;4.13;3.80;;;;;;;;;;5074332;28;20264;-69
2021/12/15 13:16:32;;;;;;;5.63;4.00;;;;;;;;;;5079502;28;20209;-69
2021/12/15 13:19:00;;;;;;;4.40;3.93;;;;;;;;;;5084650;28;20576;-69
2021/12/15 13:21:40;;;;;;;6.57;4.43;;;;;;;;;;5083181;28;20213;-67
2021/12/15 13:28:39;;;;;;;6.33;4.60;;;;;;;;;;5079810;28;20626;-69
2021/12/15 13:30:02;;;;;;;5.50;4.20;;;;;;;;;;5041745;28;1148646;-67
2021/12/15 13:32:32;;;;;;;4.83;4.20;;;;;;;;;;5084952;28;20340;-66
2021/12/15 13:34:59;;;;;;;6.37;4.13;;;;;;;;;;5077778;28;20214;-67
2021/12/15 13:37:57;;;;;;;4.93;4.20;;;;;;;;;;5078646;28;20218;-67
2021/12/15 13:40:43;;;;;;;6.20;3.97;;;;;;;;;;5000851;28;20229;-68
2021/12/15 13:43:25;;;;;;;4.83;4.30;;;;;;;;;;5067285;28;20213;-64
2021/12/15 13:45:53;;;;;;;4.93;3.80;;;;;;;;;;5065456;28;20787;-68
2021/12/15 13:48:45;;;;;;;7.40;4.63;;;;;;;;;;5072349;28;20250;-68
2021/12/15 13:51:12;;;;;;;6.30;4.17;;;;;;;;;;5082697;28;20268;-68
2021/12/15 13:53:39;;;;;;;6.73;4.97;;;;;;;;;;5079362;28;20214;-67
2021/12/15 13:56:06;;;;;;;9.33;4.67;;;;;;;;;;5086753;28;20583;-65
2021/12/15 13:58:33;;;;;;;6.60;3.97;;;;;;;;;;5086051;28;20210;-66
2021/12/15 14:01:03;;;;;;;5.57;4.20;;;;;;;;;;5085552;28;20259;-67
2021/12/15 14:03:34;;;;;;;4.97;4.10;;;;;;;;;;5080406;28;20206;-65
2021/12/15 14:06:09;;;;;;;5.97;4.43;;;;;;;;;;5076792;28;20327;-68
2021/12/15 14:08:38;;;;;;;7.40;4.57;;;;;;;;;;5074654;28;20225;-65
2021/12/15 14:11:08;;;;;;;8.57;4.20;;;;;;;;;;5077863;28;20210;-65
2021/12/15 14:13:54;;;;;;;8.57;4.33;;;;;;;;;;5076581;28;20213;-64
2021/12/15 14:16:45;;;;;;;9.03;4.67;;;;;;;;;;5076355;28;20209;-66
2021/12/15 14:19:15;;;;;;;7.93;4.70;;;;;;;;;;5054148;28;20245;-65
2021/12/15 14:21:42;;;;;;;5.53;4.07;;;;;;;;;;5078428;28;20264;-66
2021/12/15 14:24:10;;;;;;;9.52;6.60;;;;;;;;;;5071605;28;20484;-66
2021/12/15 14:26:37;;;;;;;8.57;4.80;;;;;;;;;;5078010;28;20210;-64
2021/12/15 14:29:07;;;;;;;10.20;5.73;;;;;;;;;;5080699;28;20294;-67
2021/12/15 14:31:35;;;;;;;7.20;3.97;;;;;;;;;;5075086;28;20245;-67
2021/12/15 14:34:05;;;;;;;8.00;4.83;;;;;;;;;;5075820;28;20238;-66
2021/12/15 14:36:35;;;;;;;7.33;5.30;;;;;;;;;;5073452;28;20301;-66
2021/12/15 14:39:03;;;;;;;8.27;5.17;;;;;;;;;;5075962;28;20202;-66
2021/12/15 14:41:32;;;;;;;8.47;4.80;;;;;;;;;;5075808;28;20217;-66
2021/12/15 14:44:02;;;;;;;7.83;4.73;;;;;;;;;;5074409;28;20210;-66
2021/12/15 14:46:30;;;;;;;6.57;4.90;;;;;;;;;;5075793;28;20207;-66
2021/12/15 14:49:05;;;;;;;6.50;4.30;;;;;;;;;;5073505;28;20272;-66
2021/12/15 14:51:34;;;;;;;6.33;4.27;;;;;;;;;;5074011;28;20214;-66
2021/12/15 14:54:01;;;;;;;9.87;5.17;;;;;;;;;;5074770;28;20205;-68
2021/12/15 14:56:41;;;;;;;7.77;5.10;;;;;;;;;;5075137;28;20280;-69
2021/12/15 14:59:08;;;;;;;5.83;4.60;;;;;;;;;;5074078;28;20191;-68
2021/12/15 15:01:35;;;;;;;6.70;4.40;;;;;;;;;;5075280;28;20202;-68
2021/12/15 15:04:04;;;;;;;7.70;4.67;;;;;;;;;;5073970;28;20569;-69
2021/12/15 15:06:31;;;;;;;19.67;9.50;;;;;;;;;;5073416;28;20280;-66
2021/12/15 15:09:23;;;;;;;11.53;6.37;;;;;;;;;;5073571;28;20488;-66
2021/12/15 15:11:51;;;;;;;8.03;5.13;;;;;;;;;;5071837;28;20295;-66
2021/12/15 15:14:25;;;;;;;9.67;5.10;;;;;;;;;;5073749;28;20770;-66
2021/12/15 15:16:52;;;;;;;6.83;4.97;;;;;;;;;;5072244;28;20203;-65
2021/12/15 15:19:19;;;;;;;7.63;4.87;;;;;;;;;;5074410;28;20209;-66
2021/12/15 15:21:47;;;;;;;8.13;5.30;;;;;;;;;;5075681;28;20681;-66
2021/12/15 15:24:25;;;;;;;9.40;5.73;;;;;;;;;;5074121;28;20713;-66
2021/12/15 15:26:56;;;;;;;9.77;6.00;;;;;;;;;;5072722;28;20213;-66
2021/12/15 15:29:31;;;;;;;8.10;4.80;;;;;;;;;;5073451;28;20230;-66
2021/12/15 15:31:58;;;;;;;8.60;4.70;;;;;;;;;;5076480;28;20736;-66
2021/12/15 15:34:26;;;;;;;7.03;4.90;;;;;;;;;;5073529;28;20230;-66
2021/12/15 15:36:53;;;;;;;12.43;7.10;;;;;;;;;;5075437;28;20260;-66
2021/12/15 15:39:20;;;;;;;9.47;6.33;;;;;;;;;;5075026;28;20207;-66
2021/12/15 15:41:49;;;;;;;7.83;5.17;;;;;;;;;;5073406;28;20210;-66
2021/12/15 15:44:17;;;;;;;10.70;4.83;;;;;;;;;;5072541;28;20214;-66
2021/12/15 15:46:45;;;;;;;5.10;4.10;;;;;;;;;;5073664;28;20202;-67
2021/12/15 15:49:18;;;;;;;7.47;5.17;;;;;;;;;;5076406;28;20226;-67
2021/12/15 15:51:45;;;;;;;6.57;4.40;;;;;;;;;;5073750;28;20207;-67